Time;durP1;ratioP1;P1;durP2;ratioP2;P2;SDS_P1;SDS_P2;PMS_P1;PMS_P2;Temp;Humidity;BMP_temperature;BMP_pressure;BME280_temperature;BME280_humidity;BME280_pressure;Samples;Min_cycle;Max_cycle;Signal;HPM_P1;HPM_P2
2022/01/14 00:00:48;;;;;;;45.97;18.63;;;;;;;-1.86;53.14;95938.66;4949362;28;20078;-73
2022/01/14 00:03:14;;;;;;;43.30;18.67;;;;;;;-2.04;53.90;95941.25;4944423;28;20051;-73
2022/01/14 00:05:42;;;;;;;43.25;18.13;;;;;;;-1.91;53.25;95935.50;4947772;28;20058;-73
2022/01/14 00:08:16;;;;;;;43.55;19.08;;;;;;;-1.78;53.04;95939.03;4956386;28;20054;-73
2022/01/14 00:10:49;;;;;;;43.95;18.58;;;;;;;-2.01;53.95;95936.00;4950252;28;20042;-73
2022/01/14 00:16:01;;;;;;;73.28;25.00;;;;;;;-1.94;56.10;95930.56;4952047;28;20058;-73
2022/01/14 00:18:27;;;;;;;51.42;20.33;;;;;;;-1.80;55.04;95930.66;4954399;28;20039;-73
2022/01/14 00:21:02;;;;;;;64.22;24.08;;;;;;;-1.63;55.41;95925.44;4932167;28;20043;-73
2022/01/14 00:23:33;;;;;;;58.35;22.13;;;;;;;-1.65;55.07;95937.44;4952374;28;20158;-73
2022/01/14 00:31:44;;;;;;;58.35;22.52;;;;;;;-2.19;58.14;95922.53;4963122;28;20046;-73
2022/01/14 00:34:13;;;;;;;51.63;21.15;;;;;;;-1.89;57.25;95926.06;4969084;28;20046;-74
2022/01/14 00:36:39;;;;;;;55.08;21.85;;;;;;;-1.69;56.55;95928.34;4964571;28;20031;-73
2022/01/14 00:39:07;;;;;;;50.97;20.88;;;;;;;-1.56;56.16;95925.94;4950849;28;20050;-73
2022/01/14 00:41:36;;;;;;;55.55;21.02;;;;;;;-1.59;56.22;95920.97;4969056;28;20068;-74
2022/01/14 00:44:13;;;;;;;51.72;21.55;;;;;;;-1.74;57.41;95922.66;4950857;28;20034;-73
2022/01/14 00:46:46;;;;;;;47.63;19.75;;;;;;;-1.30;55.12;95915.97;4960635;28;20043;-73
2022/01/14 00:49:12;;;;;;;45.78;18.67;;;;;;;-1.03;54.32;95914.38;4988642;28;20101;-73
2022/01/14 00:51:40;;;;;;;44.75;19.23;;;;;;;-1.17;54.28;95919.47;4969893;28;20125;-73
2022/01/14 00:54:05;;;;;;;48.33;19.38;;;;;;;-1.19;55.01;95923.84;4974180;28;20026;-73
2022/01/14 00:59:14;;;;;;;43.60;19.58;;;;;;;-0.80;53.82;95920.69;4963311;28;20042;-73
2022/01/14 01:01:50;;;;;;;48.47;19.23;;;;;;;-0.72;53.97;95924.50;4966184;28;20035;-73
2022/01/14 01:04:20;;;;;;;48.78;20.10;;;;;;;-0.73;54.21;95926.25;4967570;28;20125;-73
2022/01/14 01:06:52;;;;;;;52.08;21.58;;;;;;;-0.71;53.81;95928.72;4969096;28;20046;-73
2022/01/14 01:09:17;;;;;;;50.22;20.77;;;;;;;-0.61;53.79;95922.13;4936614;28;20034;-73
2022/01/14 01:12:12;;;;;;;53.50;21.42;;;;;;;-1.01;55.60;95922.78;4969325;28;20054;-74
2022/01/14 01:14:49;;;;;;;57.20;22.27;;;;;;;-0.55;54.36;95916.69;4955146;28;20117;-73
2022/01/14 01:17:15;;;;;;;54.55;22.48;;;;;;;-0.47;54.10;95927.25;4960677;28;20069;-73
2022/01/14 01:19:43;;;;;;;56.85;23.05;;;;;;;-0.68;55.92;95933.66;4967005;28;20046;-73
2022/01/14 01:22:08;;;;;;;56.08;22.67;;;;;;;-0.57;55.28;95912.56;4954426;28;20039;-73
2022/01/14 01:24:34;;;;;;;49.95;20.95;;;;;;;-0.46;54.85;95917.84;4968260;28;20090;-73
2022/01/14 01:27:07;;;;;;;50.50;20.85;;;;;;;-0.35;53.98;95927.44;4970513;28;20034;-74
2022/01/14 01:32:05;;;;;;;47.28;19.88;;;;;;;-0.47;53.75;95916.22;4966329;28;20043;-73
2022/01/14 01:34:30;;;;;;;42.88;18.75;;;;;;;-0.59;53.97;95917.78;4979033;28;20039;-73
2022/01/14 01:36:57;;;;;;;46.35;19.17;;;;;;;-0.39;53.12;95919.13;4968063;28;20093;-73
2022/01/14 01:39:28;;;;;;;42.80;18.98;;;;;;;-0.42;53.24;95920.13;4948994;28;20034;-73
2022/01/14 01:42:00;;;;;;;45.17;19.00;;;;;;;-0.44;53.66;95928.78;4954096;28;20043;-73
2022/01/14 01:44:27;;;;;;;44.75;18.67;;;;;;;-0.26;53.12;95914.91;4969074;28;20030;-73
2022/01/14 01:46:52;;;;;;;45.88;19.77;;;;;;;-0.22;52.94;95915.53;4954559;28;20030;-73
2022/01/14 01:49:21;;;;;;;51.78;21.02;;;;;;;-0.23;53.85;95926.66;4984400;28;20038;-73
2022/01/14 01:51:47;;;;;;;45.00;19.55;;;;;;;-0.27;53.33;95931.16;4966533;28;20046;-73
2022/01/14 01:54:13;;;;;;;51.03;20.70;;;;;;;-0.27;53.89;95917.56;4966749;28;20039;-73
2022/01/14 01:56:40;;;;;;;47.05;20.38;;;;;;;-0.37;53.99;95922.41;4981085;28;20042;-73
2022/01/14 01:59:06;;;;;;;55.13;21.15;;;;;;;-0.20;53.59;95934.97;4954781;28;20092;-73
2022/01/14 02:01:36;;;;;;;50.25;20.38;;;;;;;-0.14;52.77;95933.78;4960962;28;20038;-73
2022/01/14 02:04:03;;;;;;;58.50;22.33;;;;;;;-0.29;54.19;95925.31;4961528;28;20031;-73
2022/01/14 02:06:31;;;;;;;51.92;22.27;;;;;;;-0.31;54.16;95932.25;4968237;28;20122;-74
2022/01/14 02:09:00;;;;;;;50.95;21.30;;;;;;;-0.17;54.12;95923.75;4969588;28;20053;-74
2022/01/14 02:11:31;;;;;;;48.72;20.08;;;;;;;-0.43;54.21;95930.44;4950617;28;20039;-73
2022/01/14 02:13:59;;;;;;;43.60;19.23;;;;;;;-0.43;54.58;95935.56;4965590;28;20049;-73
2022/01/14 02:16:58;;;;;;;44.40;19.40;;;;;;;-0.18;52.51;95926.41;4962529;28;20105;-74
2022/01/14 02:19:26;;;;;;;47.05;19.77;;;;;;;-0.26;53.19;95926.88;4951531;28;20047;-74
2022/01/14 02:22:11;;;;;;;44.50;18.90;;;;;;;-0.25;52.44;95928.50;4958120;28;20041;-74
2022/01/14 02:27:14;;;;;;;43.95;18.08;;;;;;;-0.69;52.34;95927.69;4966096;28;20042;-73
2022/01/14 02:29:42;;;;;;;38.28;16.88;;;;;;;-0.70;52.57;95930.38;4948803;28;20062;-73
2022/01/14 02:32:13;;;;;;;40.75;16.55;;;;;;;-0.74;52.44;95934.84;4954298;28;20047;-73
2022/01/14 02:34:39;;;;;;;38.75;17.45;;;;;;;-0.77;52.02;95935.00;4965707;28;20062;-74
2022/01/14 02:37:06;;;;;;;39.33;16.77;;;;;;;-0.67;51.93;95937.84;4965908;28;20042;-73
2022/01/14 02:39:35;;;;;;;42.35;19.05;;;;;;;-0.79;52.32;95936.84;4965573;28;20042;-73
2022/01/14 02:42:03;;;;;;;38.35;17.27;;;;;;;-0.85;52.56;95935.47;4947368;28;20127;-73
2022/01/14 02:44:33;;;;;;;41.58;17.83;;;;;;;-0.91;52.05;95933.28;4951365;28;20046;-73
2022/01/14 02:47:04;;;;;;;41.37;17.37;;;;;;;-0.92;52.17;95934.16;4948971;28;20125;-74
2022/01/14 02:49:36;;;;;;;40.55;17.95;;;;;;;-0.89;52.22;95928.09;4968040;28;20169;-73
2022/01/14 02:52:08;;;;;;;43.30;18.27;;;;;;;-1.06;52.88;95929.06;4949683;28;20046;-73
2022/01/14 02:54:52;;;;;;;41.38;18.10;;;;;;;-0.87;51.97;95929.63;4952063;28;20038;-74
2022/01/14 02:57:18;;;;;;;40.95;17.75;;;;;;;-1.02;52.45;95917.75;4966226;28;20126;-74
2022/01/14 02:59:48;;;;;;;46.88;19.00;;;;;;;-1.02;52.34;95917.75;4954719;28;20046;-73
2022/01/14 03:02:15;;;;;;;41.65;17.38;;;;;;;-0.94;51.14;95917.31;4978571;28;20030;-73
2022/01/14 03:04:41;;;;;;;35.38;15.52;;;;;;;-1.40;52.73;95923.31;4947969;28;20113;-73
2022/01/14 03:07:08;;;;;;;37.53;16.40;;;;;;;-1.51;52.43;95925.66;4963926;28;20031;-73
2022/01/14 03:09:34;;;;;;;38.78;16.17;;;;;;;-1.30;51.96;95921.06;4978768;28;20116;-73
2022/01/14 03:11:59;;;;;;;38.70;16.92;;;;;;;-1.33;51.43;95916.97;4937670;28;20046;-73
2022/01/14 03:14:25;;;;;;;38.47;16.38;;;;;;;-1.38;51.58;95917.22;4954198;28;20045;-75
2022/01/14 03:16:58;;;;;;;39.45;16.80;;;;;;;-1.29;51.99;95918.44;4984481;28;20042;-75
2022/01/14 03:19:27;;;;;;;39.97;16.88;;;;;;;-1.27;51.54;95918.34;4982189;28;20108;-75
2022/01/14 03:22:03;;;;;;;37.78;16.85;;;;;;;-1.35;51.57;95916.25;4964547;28;20042;-75
2022/01/14 03:27:00;;;;;;;40.30;17.65;;;;;;;-1.46;52.21;95906.63;4972059;28;20197;-75
2022/01/14 03:29:26;;;;;;;37.67;16.23;;;;;;;-1.33;51.13;95903.38;4983253;28;20054;-75
2022/01/14 03:31:53;;;;;;;35.75;15.77;;;;;;;-1.44;50.81;95909.91;4932080;28;20039;-75
2022/01/14 03:34:19;;;;;;;37.25;16.48;;;;;;;-1.51;51.61;95913.72;4979541;28;20053;-75
2022/01/14 03:36:46;;;;;;;40.03;16.95;;;;;;;-1.58;51.71;95903.03;4963370;28;20042;-75
2022/01/14 03:39:13;;;;;;;34.40;15.77;;;;;;;-1.49;51.07;95898.31;4945961;28;20034;-75
2022/01/14 03:41:42;;;;;;;36.33;16.10;;;;;;;-1.57;50.99;95901.31;4971217;28;20051;-75
2022/01/14 03:44:14;;;;;;;37.40;16.33;;;;;;;-1.68;51.76;95899.34;4970499;28;20113;-75
2022/01/14 03:46:46;;;;;;;42.30;17.38;;;;;;;-1.71;51.79;95899.53;4970350;28;20042;-75
2022/01/14 03:49:14;;;;;;;39.67;16.90;;;;;;;-1.62;51.69;95895.63;4969758;28;20042;-75
2022/01/14 03:51:46;;;;;;;35.70;14.65;;;;;;;-1.78;51.69;95888.84;4948372;28;20035;-75
2022/01/14 03:54:16;;;;;;;36.05;15.68;;;;;;;-1.70;51.36;95882.50;4967872;28;20038;-75
2022/01/14 03:56:44;;;;;;;39.93;16.80;;;;;;;-1.84;51.97;95885.84;4939901;28;20135;-75
2022/01/14 03:59:12;;;;;;;36.75;15.43;;;;;;;-1.85;51.91;95881.63;4969431;28;20030;-75
2022/01/14 04:01:39;;;;;;;38.88;15.60;;;;;;;-1.74;51.22;95884.41;4953913;28;20129;-75
2022/01/14 04:04:05;;;;;;;34.72;15.43;;;;;;;-1.71;52.31;95885.94;4970593;28;20035;-75
2022/01/14 04:06:32;;;;;;;37.15;15.68;;;;;;;-1.71;51.79;95889.34;4936165;28;20113;-75
2022/01/14 04:08:57;;;;;;;38.00;16.25;;;;;;;-1.67;52.38;95888.25;4953879;28;20058;-75
2022/01/14 04:11:29;;;;;;;35.20;14.85;;;;;;;-1.70;52.71;95877.41;4925658;28;20054;-75
2022/01/14 04:14:07;;;;;;;38.60;15.85;;;;;;;-1.87;53.39;95883.44;4961392;28;20053;-75
2022/01/14 04:16:35;;;;;;;36.47;14.93;;;;;;;-2.04;53.85;95876.72;4953377;28;20053;-75
2022/01/14 04:19:03;;;;;;;35.58;16.17;;;;;;;-1.99;53.98;95869.66;4955605;28;20042;-75
2022/01/14 04:21:40;;;;;;;37.35;15.73;;;;;;;-1.88;54.07;95866.50;4937559;28;20042;-75
2022/01/14 04:24:06;;;;;;;35.40;15.13;;;;;;;-1.87;54.02;95865.59;4929904;29;20126;-75
2022/01/14 04:26:33;;;;;;;37.22;14.80;;;;;;;-1.58;53.04;95857.13;4932459;28;20038;-75
2022/01/14 04:29:01;;;;;;;40.45;16.60;;;;;;;-1.62;52.71;95857.38;4915153;29;20108;-75
2022/01/14 04:31:28;;;;;;;33.65;15.60;;;;;;;-1.71;52.75;95850.25;4900604;29;20050;-75
2022/01/14 04:33:54;;;;;;;34.47;14.32;;;;;;;-1.73;53.01;95849.50;4912924;29;20048;-75
2022/01/14 04:36:23;;;;;;;35.33;14.90;;;;;;;-1.75;52.49;95847.06;4927346;29;20047;-75
2022/01/14 04:38:58;;;;;;;33.90;13.95;;;;;;;-1.68;52.24;95850.09;4932022;28;20047;-75
2022/01/14 04:41:26;;;;;;;40.92;16.25;;;;;;;-1.53;52.12;95849.22;4938221;28;20038;-75
2022/01/14 04:43:58;;;;;;;40.20;16.90;;;;;;;-1.49;52.42;95842.19;4929661;28;20130;-75
2022/01/14 04:49:09;;;;;;;43.92;16.45;;;;;;;-1.21;52.78;95851.63;4937838;28;20050;-75
2022/01/14 04:51:35;;;;;;;37.45;16.60;;;;;;;-1.29;52.83;95841.06;4933277;28;20035;-74
2022/01/14 04:54:02;;;;;;;39.90;16.00;;;;;;;-1.39;52.89;95845.84;4950934;28;20054;-75
2022/01/14 04:56:27;;;;;;;41.67;16.30;;;;;;;-1.42;52.80;95840.94;4949402;28;20034;-75
2022/01/14 04:58:56;;;;;;;42.95;17.85;;;;;;;-1.36;52.72;95847.41;4977169;28;20045;-75
2022/01/14 05:01:22;;;;;;;37.33;15.43;;;;;;;-1.27;52.15;95840.06;4952627;28;20046;-75
2022/01/14 05:03:56;;;;;;;45.22;17.58;;;;;;;-1.34;52.31;95833.66;4952783;28;20039;-75
2022/01/14 05:06:27;;;;;;;47.35;16.33;;;;;;;-1.36;52.27;95840.59;4951831;28;20047;-75
2022/01/14 05:08:53;;;;;;;49.53;19.10;;;;;;;-1.34;52.47;95836.22;4951760;28;20039;-75
2022/01/14 05:11:24;;;;;;;45.35;17.20;;;;;;;-1.19;52.04;95839.59;4953459;28;20042;-75
2022/01/14 05:13:51;;;;;;;51.70;18.58;;;;;;;-1.22;52.42;95835.50;4953287;28;20034;-75
2022/01/14 05:16:17;;;;;;;51.42;19.88;;;;;;;-1.13;52.28;95828.22;4971532;28;20045;-75
2022/01/14 05:18:43;;;;;;;69.95;22.17;;;;;;;-1.23;52.78;95830.47;4952363;28;20053;-75
2022/01/14 05:21:14;;;;;;;101.82;23.80;;;;;;;-1.21;53.32;95826.91;4950325;28;20038;-75
2022/01/14 05:23:42;;;;;;;71.07;22.70;;;;;;;-1.17;52.90;95819.09;4965840;28;20046;-75
2022/01/14 05:26:08;;;;;;;65.78;20.83;;;;;;;-1.29;52.92;95826.56;4966093;28;20035;-75
2022/01/14 05:28:33;;;;;;;64.60;21.02;;;;;;;-1.20;52.67;95822.63;4968561;28;20050;-75
2022/01/14 05:30:59;;;;;;;64.32;22.45;;;;;;;-1.33;52.82;95816.59;4966308;28;20054;-75
2022/01/14 05:33:31;;;;;;;81.35;22.58;;;;;;;-1.33;52.96;95820.00;4964794;28;20129;-75
2022/01/14 05:35:57;;;;;;;73.00;23.50;;;;;;;-1.50;53.52;95815.88;4965357;28;20042;-75
2022/01/14 05:38:22;;;;;;;68.30;22.10;;;;;;;-1.46;53.48;95819.88;4945736;28;20041;-75
2022/01/14 05:40:50;;;;;;;66.55;21.73;;;;;;;-1.39;53.20;95821.19;4968364;28;20041;-75
2022/01/14 05:43:21;;;;;;;61.20;21.40;;;;;;;-1.42;52.72;95821.34;4943654;28;20039;-75
2022/01/14 05:45:47;;;;;;;58.42;21.15;;;;;;;-1.38;52.60;95820.25;4957870;28;20039;-75
2022/01/14 05:48:16;;;;;;;54.00;19.73;;;;;;;-1.43;52.60;95817.16;4946679;28;20049;-75
2022/01/14 05:50:43;;;;;;;54.72;20.63;;;;;;;-1.61;53.03;95819.03;4965706;28;20030;-75
2022/01/14 05:53:09;;;;;;;50.90;18.90;;;;;;;-1.61;52.64;95821.59;4969838;28;20114;-75
2022/01/14 05:55:34;;;;;;;49.50;17.30;;;;;;;-1.78;53.07;95824.28;4968624;28;20037;-75
2022/01/14 05:58:01;;;;;;;43.15;17.33;;;;;;;-1.91;53.12;95813.94;4948708;28;20058;-75
2022/01/14 06:00:28;;;;;;;44.03;17.25;;;;;;;-1.90;52.84;95819.88;4947530;28;20148;-75
2022/01/14 06:03:00;;;;;;;45.50;18.27;;;;;;;-1.91;52.65;95831.78;4946548;28;20061;-75
2022/01/14 06:05:25;;;;;;;45.47;17.42;;;;;;;-1.77;51.94;95823.38;4947455;28;20053;-75
2022/01/14 06:07:51;;;;;;;45.45;17.60;;;;;;;-1.75;51.89;95824.13;4934008;28;20034;-74
2022/01/14 06:10:18;;;;;;;40.63;17.02;;;;;;;-1.67;51.82;95823.69;4950887;28;20127;-75
2022/01/14 06:12:45;;;;;;;42.83;16.67;;;;;;;-1.66;51.41;95821.03;4938512;28;20054;-75
2022/01/14 06:15:11;;;;;;;45.75;18.48;;;;;;;-1.71;51.55;95825.59;4950230;28;20099;-75
2022/01/14 06:17:39;;;;;;;37.70;16.13;;;;;;;-1.69;51.61;95821.22;4936260;28;20038;-75
2022/01/14 06:20:14;;;;;;;45.50;16.92;;;;;;;-1.80;52.25;95821.00;4961510;28;20042;-75
2022/01/14 06:22:39;;;;;;;37.35;15.88;;;;;;;-1.90;52.20;95823.25;4951637;28;20046;-75
2022/01/14 06:25:07;;;;;;;44.17;16.38;;;;;;;-1.81;52.15;95816.78;4938234;28;20034;-75
2022/01/14 06:27:33;;;;;;;40.63;15.65;;;;;;;-1.76;51.98;95819.91;4934373;28;20050;-75
2022/01/14 06:30:01;;;;;;;40.53;14.85;;;;;;;-1.79;52.15;95810.72;4950668;28;20053;-75
2022/01/14 06:32:33;;;;;;;37.97;15.77;;;;;;;-1.70;51.86;95814.47;4947829;28;20110;-75
2022/01/14 06:35:03;;;;;;;41.83;17.08;;;;;;;-1.87;52.47;95814.59;4948498;28;20115;-74
2022/01/14 06:37:31;;;;;;;41.38;15.57;;;;;;;-1.60;51.67;95813.03;4946030;28;20046;-75
2022/01/14 06:39:59;;;;;;;36.78;14.75;;;;;;;-1.59;52.04;95811.31;4927936;28;20053;-75
2022/01/14 06:42:24;;;;;;;44.40;16.42;;;;;;;-1.65;52.06;95809.91;4927841;28;20049;-75
2022/01/14 06:44:50;;;;;;;41.33;16.42;;;;;;;-1.67;52.20;95800.72;4931013;28;20058;-76
2022/01/14 06:47:15;;;;;;;41.88;17.17;;;;;;;-1.87;53.56;95799.31;4944575;28;20061;-77
2022/01/14 06:49:41;;;;;;;45.90;18.88;;;;;;;-1.69;52.77;95805.09;4947670;28;20035;-74
2022/01/14 06:52:08;;;;;;;47.13;17.75;;;;;;;-1.70;52.95;95806.00;4948865;28;20042;-74
2022/01/14 06:54:34;;;;;;;44.00;17.42;;;;;;;-1.68;52.68;95797.34;4962358;28;20026;-74
2022/01/14 06:56:59;;;;;;;44.95;17.52;;;;;;;-1.53;52.58;95805.03;4951254;28;20074;-74
2022/01/14 06:59:29;;;;;;;46.20;18.63;;;;;;;-1.54;52.69;95801.66;4947179;28;20050;-75
2022/01/14 07:01:57;;;;;;;48.42;19.20;;;;;;;-1.57;52.64;95807.75;4929913;28;20046;-75
2022/01/14 07:04:24;;;;;;;44.85;18.95;;;;;;;-1.56;53.14;95798.38;4951382;28;20139;-75
2022/01/14 07:06:52;;;;;;;43.22;18.42;;;;;;;-1.50;52.95;95799.75;4934925;28;20043;-75
2022/01/14 07:09:22;;;;;;;43.00;18.15;;;;;;;-1.52;53.14;95804.09;4936934;28;20050;-75
2022/01/14 07:11:56;;;;;;;45.53;17.70;;;;;;;-1.46;53.07;95806.31;4935156;28;20078;-75
2022/01/14 07:14:22;;;;;;;44.00;17.67;;;;;;;-1.42;52.81;95811.13;4936058;28;20080;-74
2022/01/14 07:16:53;;;;;;;41.38;16.90;;;;;;;-1.50;52.73;95802.31;4937422;28;20047;-75
2022/01/14 07:19:23;;;;;;;38.97;16.13;;;;;;;-1.41;52.83;95807.69;4943312;28;20042;-75
2022/01/14 07:21:48;;;;;;;43.17;16.33;;;;;;;-1.39;52.73;95805.88;4967076;28;20047;-75
2022/01/14 07:24:14;;;;;;;40.85;15.60;;;;;;;-1.51;53.37;95809.13;4951093;28;20088;-75
2022/01/14 07:26:45;;;;;;;45.28;15.43;;;;;;;-1.41;52.60;95802.59;4941972;28;20177;-74
2022/01/14 07:29:13;;;;;;;38.90;15.57;;;;;;;-1.34;52.67;95812.44;4941338;28;20054;-75
2022/01/14 07:31:38;;;;;;;38.80;15.40;;;;;;;-1.21;52.44;95809.06;4952344;28;20097;-74
2022/01/14 07:34:05;;;;;;;37.05;14.48;;;;;;;-1.20;52.55;95800.50;4963856;28;20062;-74
2022/01/14 07:36:32;;;;;;;39.10;14.23;;;;;;;-1.26;52.66;95794.91;4970396;28;20061;-75
2022/01/14 07:38:58;;;;;;;42.28;15.13;;;;;;;-1.19;52.89;95798.75;4967857;28;20122;-75
2022/01/14 07:41:24;;;;;;;41.15;15.25;;;;;;;-1.23;52.70;95800.66;4969221;28;20045;-75
2022/01/14 07:43:57;;;;;;;34.38;14.15;;;;;;;-1.15;52.65;95801.94;4969649;28;20369;-75
2022/01/14 07:46:22;;;;;;;33.80;14.40;;;;;;;-1.05;52.13;95803.88;4969661;28;20053;-75
2022/01/14 07:48:48;;;;;;;34.85;13.00;;;;;;;-1.06;52.20;95793.75;4964001;28;20030;-75
2022/01/14 07:51:16;;;;;;;36.20;14.80;;;;;;;-1.06;52.36;95798.84;4949530;28;20031;-75
2022/01/14 07:53:44;;;;;;;34.53;14.88;;;;;;;-0.97;51.97;95795.75;4937231;28;20027;-75
2022/01/14 07:56:14;;;;;;;36.17;14.30;;;;;;;-0.96;52.38;95801.66;4970701;28;20067;-75
2022/01/14 07:58:43;;;;;;;36.58;14.60;;;;;;;-0.86;52.25;95797.63;4937394;28;20046;-75
2022/01/14 08:01:10;;;;;;;38.00;14.27;;;;;;;-0.83;52.48;95805.94;4952212;28;20078;-75
2022/01/14 08:03:35;;;;;;;38.15;14.75;;;;;;;-0.57;52.10;95800.13;4949901;28;20038;-75
2022/01/14 08:06:04;;;;;;;35.88;14.73;;;;;;;-0.54;52.18;95808.44;4966579;28;20030;-75
2022/01/14 08:08:29;;;;;;;34.38;14.02;;;;;;;-0.49;51.75;95811.53;4950412;28;20039;-75
2022/01/14 08:10:55;;;;;;;35.47;14.43;;;;;;;-0.51;52.64;95812.56;4964822;28;20031;-75
2022/01/14 08:13:22;;;;;;;31.25;13.57;;;;;;;-0.30;51.49;95813.75;4949618;28;20078;-75
2022/01/14 08:15:53;;;;;;;38.70;14.07;;;;;;;-0.27;51.57;95815.31;4953386;28;20045;-75
2022/01/14 08:18:26;;;;;;;33.40;14.68;;;;;;;-0.33;52.12;95818.25;4971330;28;20034;-75
2022/01/14 08:20:59;;;;;;;38.47;15.13;;;;;;;-0.17;51.88;95825.75;4982213;28;20039;-75
2022/01/14 08:23:24;;;;;;;34.78;14.82;;;;;;;-0.02;51.93;95822.22;4958915;28;20050;-75
2022/01/14 08:25:53;;;;;;;36.35;15.13;;;;;;;0.19;51.78;95826.00;4961932;28;20038;-75
2022/01/14 08:28:21;;;;;;;35.78;13.82;;;;;;;0.18;51.77;95828.66;4967587;28;20045;-75
2022/01/14 08:30:48;;;;;;;32.17;14.85;;;;;;;0.23;51.83;95833.44;4968953;28;20050;-75
2022/01/14 08:33:16;;;;;;;34.25;14.65;;;;;;;0.27;52.28;95832.34;4953462;28;20046;-75
2022/01/14 08:35:44;;;;;;;37.50;14.70;;;;;;;0.38;52.00;95830.75;4968278;28;20041;-75
2022/01/14 08:38:12;;;;;;;34.92;14.73;;;;;;;0.42;52.29;95835.63;4972679;28;20045;-76
2022/01/14 08:40:38;;;;;;;33.72;14.90;;;;;;;0.53;52.53;95831.47;4933298;28;20042;-75
2022/01/14 08:43:04;;;;;;;32.92;14.27;;;;;;;0.64;52.27;95832.50;4968607;28;20047;-75
2022/01/14 08:45:31;;;;;;;30.95;13.25;;;;;;;0.89;51.53;95829.13;4939109;28;20038;-75
2022/01/14 08:47:57;;;;;;;33.42;14.80;;;;;;;0.96;51.75;95832.91;4972080;28;20034;-75
2022/01/14 08:50:30;;;;;;;31.92;14.25;;;;;;;0.98;52.04;95837.00;4953163;28;20034;-75
2022/01/14 08:52:56;;;;;;;36.33;15.27;;;;;;;1.16;52.15;95840.09;4951600;28;20057;-75
2022/01/14 08:55:23;;;;;;;33.58;14.95;;;;;;;1.18;52.16;95842.50;4936719;28;20042;-75
2022/01/14 08:57:54;;;;;;;36.97;15.35;;;;;;;1.26;51.96;95845.41;4953459;28;20030;-75
2022/01/14 09:00:23;;;;;;;47.17;17.27;;;;;;;1.45;52.38;95839.00;4969862;28;20038;-75
2022/01/14 09:02:51;;;;;;;38.15;16.85;;;;;;;1.64;52.19;95833.41;4988378;28;20050;-75
2022/01/14 09:05:19;;;;;;;38.65;16.95;;;;;;;1.76;52.62;95837.69;4969133;28;20034;-75
2022/01/14 09:07:46;;;;;;;42.17;18.45;;;;;;;1.77;52.57;95834.16;4987262;28;20046;-75
2022/01/14 09:10:12;;;;;;;40.45;18.80;;;;;;;1.81;53.07;95832.22;4967845;28;20033;-75
2022/01/14 09:12:40;;;;;;;46.38;18.75;;;;;;;1.92;52.97;95838.25;4986916;28;20050;-75
2022/01/14 09:15:09;;;;;;;43.00;18.17;;;;;;;1.70;53.97;95835.56;4971662;28;20079;-76
2022/01/14 09:17:37;;;;;;;42.28;19.83;;;;;;;1.93;53.63;95841.63;4973767;28;20034;-75
2022/01/14 09:20:04;;;;;;;51.72;23.73;;;;;;;2.10;53.36;95845.56;4986904;28;20042;-75
2022/01/14 09:22:31;;;;;;;47.05;21.70;;;;;;;2.05;53.65;95853.56;4997843;28;20049;-76
2022/01/14 09:24:59;;;;;;;48.30;21.27;;;;;;;2.14;54.49;95854.66;4971590;28;20069;-76
2022/01/14 09:27:26;;;;;;;46.92;21.58;;;;;;;2.23;54.40;95856.56;4974245;28;20140;-75
2022/01/14 09:29:54;;;;;;;53.72;23.55;;;;;;;2.41;53.91;95864.69;4951502;28;20033;-75
2022/01/14 09:32:20;;;;;;;45.53;22.15;;;;;;;2.45;53.57;95867.84;4970328;28;20054;-75
2022/01/14 09:34:45;;;;;;;48.90;22.85;;;;;;;2.64;53.63;95870.69;4985562;28;20038;-75
2022/01/14 09:37:12;;;;;;;51.28;22.98;;;;;;;2.69;53.50;95872.94;4970001;28;20177;-76
2022/01/14 09:39:42;;;;;;;49.53;22.88;;;;;;;2.73;53.24;95875.16;4998013;28;20038;-76
2022/01/14 09:42:13;;;;;;;48.83;23.88;;;;;;;2.69;53.63;95875.53;4973975;28;20033;-75
2022/01/14 09:44:44;;;;;;;46.95;22.40;;;;;;;2.93;53.10;95878.00;4986653;28;20134;-76
2022/01/14 09:47:14;;;;;;;45.15;21.52;;;;;;;3.10;53.19;95877.59;4959562;28;20094;-76
2022/01/14 09:49:40;;;;;;;50.20;22.53;;;;;;;3.24;53.21;95879.13;4973326;28;20125;-76
2022/01/14 09:52:06;;;;;;;42.65;21.25;;;;;;;3.42;53.04;95876.88;4984155;28;20280;-76
2022/01/14 09:54:34;;;;;;;45.95;21.42;;;;;;;3.72;51.71;95884.00;4985350;28;20038;-75
2022/01/14 09:56:59;;;;;;;41.42;21.25;;;;;;;4.16;50.97;95880.66;4970191;28;20038;-75
2022/01/14 09:59:24;;;;;;;39.35;19.08;;;;;;;4.84;48.93;95876.84;4970694;28;20030;-75
2022/01/14 10:01:52;;;;;;;35.65;18.33;;;;;;;5.36;47.61;95876.84;4971391;28;20042;-76
2022/01/14 10:04:19;;;;;;;31.00;16.50;;;;;;;5.75;46.72;95877.00;4967631;28;20066;-75
2022/01/14 10:06:46;;;;;;;32.33;16.80;;;;;;;5.83;45.88;95881.53;4970592;28;20121;-75
2022/01/14 10:09:13;;;;;;;31.33;16.92;;;;;;;6.00;45.53;95874.94;4984718;28;20039;-76
2022/01/14 10:11:42;;;;;;;30.77;17.27;;;;;;;6.14;45.71;95871.97;4985533;28;20038;-76
2022/01/14 10:14:12;;;;;;;29.52;16.20;;;;;;;6.38;44.56;95856.06;4999389;28;20061;-75
2022/01/14 10:16:41;;;;;;;30.73;16.85;;;;;;;6.72;43.28;95852.25;4984258;28;20034;-75
2022/01/14 10:19:21;;;;;;;29.02;16.02;;;;;;;7.72;41.73;95848.28;4980698;28;20061;-75
2022/01/14 10:21:47;;;;;;;27.30;15.63;;;;;;;8.33;40.08;95846.78;4998325;28;20045;-75
2022/01/14 10:24:13;;;;;;;25.38;14.73;;;;;;;8.16;40.56;95836.25;4967588;28;20038;-76
2022/01/14 10:26:51;;;;;;;25.55;14.65;;;;;;;7.08;41.00;95832.56;4969696;28;20126;-76
2022/01/14 10:29:34;;;;;;;29.05;15.80;;;;;;;8.06;40.23;95826.94;4987246;28;20038;-76
2022/01/14 10:32:01;;;;;;;27.50;15.80;;;;;;;8.66;38.30;95826.34;4980992;28;20088;-75
2022/01/14 10:34:40;;;;;;;26.17;15.93;;;;;;;10.58;36.03;95822.44;5021371;28;20059;-76
2022/01/14 10:37:14;;;;;;;25.02;15.40;;;;;;;12.79;32.27;95825.16;4987484;28;20029;-76
2022/01/14 10:39:49;;;;;;;21.55;13.55;;;;;;;14.15;28.95;95818.78;5002336;28;20065;-76
2022/01/14 10:42:27;;;;;;;20.65;13.18;;;;;;;14.78;28.34;95811.13;5003305;28;20124;-76
2022/01/14 10:44:53;;;;;;;22.85;13.65;;;;;;;15.51;27.08;95810.00;4991165;28;20124;-76
2022/01/14 10:47:20;;;;;;;22.15;13.70;;;;;;;15.59;26.32;95808.06;4986463;28;20033;-76
2022/01/14 10:49:50;;;;;;;19.80;13.48;;;;;;;16.48;25.85;95805.53;5001772;28;20048;-76
2022/01/14 10:52:17;;;;;;;20.00;14.52;;;;;;;17.22;24.82;95806.38;4989136;28;20041;-76
2022/01/14 10:54:49;;;;;;;23.02;15.05;;;;;;;17.64;23.82;95806.91;4987996;28;20124;-76
2022/01/14 10:57:25;;;;;;;21.20;14.18;;;;;;;17.84;22.46;95801.53;5002183;28;20122;-77
2022/01/14 10:59:56;;;;;;;19.70;14.63;;;;;;;18.22;22.21;95793.72;5003988;28;20136;-77
2022/01/14 11:02:38;;;;;;;17.92;14.02;;;;;;;18.91;21.85;95799.97;5004113;28;20071;-76
2022/01/14 11:05:23;;;;;;;20.08;15.15;;;;;;;18.98;21.58;95791.97;4976441;28;20133;-77
2022/01/14 11:07:51;;;;;;;19.65;15.48;;;;;;;18.86;22.24;95783.97;4966674;28;20092;-77
2022/01/14 11:10:28;;;;;;;20.85;15.60;;;;;;;19.24;21.39;95787.50;4996304;28;20049;-77
2022/01/14 11:12:54;;;;;;;20.65;15.98;;;;;;;19.13;21.73;95781.94;4983722;28;20039;-77
2022/01/14 11:15:23;;;;;;;25.40;17.15;;;;;;;18.64;21.83;95780.91;4967585;28;20038;-77
2022/01/14 11:17:53;;;;;;;24.30;18.83;;;;;;;17.43;23.38;95785.09;4993761;28;20165;-77
2022/01/14 11:20:26;;;;;;;27.67;20.00;;;;;;;16.98;24.10;95783.16;4965525;28;20030;-77
2022/01/14 11:26:00;;;;;;;31.40;22.25;;;;;;;17.95;23.65;95775.44;4982706;28;20049;-77
2022/01/14 11:28:39;;;;;;;31.77;22.70;;;;;;;16.97;24.80;95783.34;4982252;28;20048;-77
2022/01/14 11:31:29;;;;;;;31.08;22.80;;;;;;;17.61;24.19;95778.38;4980287;28;20038;-77
2022/01/14 11:33:55;;;;;;;34.22;23.92;;;;;;;17.05;25.16;95770.00;4971465;28;20034;-77
2022/01/14 11:36:21;;;;;;;35.15;24.30;;;;;;;17.17;24.76;95768.38;4983073;28;20039;-77
2022/01/14 11:38:55;;;;;;;36.05;24.95;;;;;;;16.98;25.44;95771.81;4965965;28;20038;-77
2022/01/14 11:41:22;;;;;;;36.80;24.55;;;;;;;17.59;24.35;95768.88;4963787;28;20046;-77
2022/01/14 11:43:56;;;;;;;35.63;25.60;;;;;;;18.09;24.22;95759.56;4967629;28;20159;-76
2022/01/14 11:46:31;;;;;;;37.40;24.88;;;;;;;18.60;22.89;95758.63;4960439;28;20033;-76
2022/01/14 11:48:57;;;;;;;35.28;25.45;;;;;;;16.94;24.78;95757.47;5000718;28;20053;-76
2022/01/14 11:51:22;;;;;;;34.75;25.00;;;;;;;17.52;24.14;95762.03;4978259;28;20061;-78